createdAt,value
2016-06-25T00:00:43.442Z,0
2016-06-25T00:01:43.446Z,0
2016-06-25T00:02:43.994Z,0
2016-06-25T00:03:44.018Z,0
2016-06-25T00:04:43.987Z,0
2016-06-25T00:05:43.994Z,0
2016-06-25T00:06:43.945Z,0
2016-06-25T00:07:44.518Z,0
2016-06-25T00:08:45.093Z,0
2016-06-25T00:09:44.485Z,0
2016-06-25T00:10:44.463Z,0
2016-06-25T00:11:44.446Z,0
2016-06-25T00:12:43.848Z,0
2016-06-25T00:13:44.438Z,0
2016-06-25T00:14:43.225Z,0
2016-06-25T00:15:44.991Z,0
2016-06-25T00:16:44.374Z,0
2016-06-25T00:17:44.377Z,0
2016-06-25T00:18:43.757Z,0
2016-06-25T00:19:44.334Z,0
2016-06-25T00:20:44.318Z,0
2016-06-25T00:21:44.318Z,0
2016-06-25T00:22:43.691Z,0
2016-06-25T00:23:43.680Z,0
2016-06-25T00:24:44.850Z,0
2016-06-25T00:25:44.246Z,0
2016-06-25T00:26:43.028Z,0
2016-06-25T00:27:44.195Z,0
2016-06-25T00:28:44.194Z,0
2016-06-25T00:29:43.583Z,0
2016-06-25T00:30:43.556Z,0
2016-06-25T00:31:43.537Z,0
2016-06-25T00:32:43.556Z,0
2016-06-25T00:33:44.757Z,0
2016-06-25T00:34:43.489Z,0
2016-06-25T00:35:44.083Z,0
2016-06-25T00:36:43.483Z,0
2016-06-25T00:37:42.900Z,0
2016-06-25T00:38:44.064Z,0
2016-06-25T00:39:42.830Z,0
2016-06-25T00:40:44.022Z,0
2016-06-25T00:41:43.381Z,0
2016-06-25T00:42:42.767Z,0
2016-06-25T00:43:43.365Z,0
2016-06-25T00:44:43.373Z,0
2016-06-25T00:45:43.939Z,0
2016-06-25T00:46:42.729Z,0
2016-06-25T00:47:42.699Z,0
2016-06-25T00:48:43.887Z,0
2016-06-25T00:49:42.680Z,0
2016-06-25T00:50:43.243Z,0
2016-06-25T00:51:42.625Z,0
2016-06-25T00:52:44.418Z,0
2016-06-25T00:53:44.619Z,0
2016-06-25T00:54:43.182Z,0
2016-06-25T00:55:43.177Z,0
2016-06-25T00:56:43.152Z,0
2016-06-25T00:57:42.611Z,0
2016-06-25T00:58:43.715Z,0
2016-06-25T00:59:43.724Z,0
2016-06-25T01:00:44.299Z,0
2016-06-25T01:01:43.717Z,0
2016-06-25T01:02:43.067Z,0
2016-06-25T01:03:43.649Z,0
2016-06-25T01:04:43.647Z,0
2016-06-25T01:05:43.622Z,0
2016-06-25T01:06:43.628Z,0
2016-06-25T01:07:42.995Z,0
2016-06-25T01:08:42.369Z,0
2016-06-25T01:09:41.793Z,0
2016-06-25T01:10:42.316Z,0
2016-06-25T01:11:42.919Z,0
2016-06-25T01:12:43.493Z,0
2016-06-25T01:13:42.890Z,0
2016-06-25T01:14:42.870Z,0
2016-06-25T01:15:41.669Z,0
2016-06-25T01:16:43.438Z,0
2016-06-25T01:17:42.215Z,0
2016-06-25T01:18:43.458Z,0
2016-06-25T01:19:44.000Z,0
2016-06-25T01:20:42.775Z,0
2016-06-25T01:21:42.167Z,0
2016-06-25T01:22:43.353Z,0
2016-06-25T01:23:43.923Z,0
2016-06-25T01:24:42.740Z,0
2016-06-25T01:25:43.896Z,0
2016-06-25T01:26:42.087Z,0
2016-06-25T01:27:42.074Z,0
2016-06-25T01:28:42.677Z,0
2016-06-25T01:29:42.035Z,0
2016-06-25T01:30:41.449Z,0
2016-06-25T01:31:42.611Z,0
2016-06-25T01:32:42.580Z,0
2016-06-25T01:33:41.390Z,0
2016-06-25T01:34:41.371Z,0
2016-06-25T01:35:43.755Z,0
2016-06-25T01:36:42.511Z,0
2016-06-25T01:37:43.144Z,0
2016-06-25T01:38:42.496Z,0
2016-06-25T01:39:41.886Z,0
2016-06-25T01:40:43.664Z,0
2016-06-25T01:41:43.041Z,0
2016-06-25T01:42:43.662Z,0
2016-06-25T01:43:41.834Z,0
2016-06-25T01:44:42.979Z,0
2016-06-25T01:45:42.417Z,0
2016-06-25T01:46:42.367Z,0
2016-06-25T01:47:42.325Z,0
2016-06-25T01:48:42.326Z,0
2016-06-25T01:49:41.114Z,0
2016-06-25T01:50:42.298Z,0
2016-06-25T01:51:41.678Z,0
2016-06-25T01:52:42.853Z,0
2016-06-25T01:53:43.444Z,0
2016-06-25T01:54:42.227Z,0
2016-06-25T01:55:41.626Z,0
2016-06-25T01:56:42.195Z,0
2016-06-25T01:57:43.393Z,0
2016-06-25T01:58:42.765Z,0
2016-06-25T01:59:42.754Z,0
2016-06-25T02:00:41.552Z,0
2016-06-25T02:01:42.136Z,0
2016-06-25T02:02:42.113Z,0
2016-06-25T02:03:42.679Z,0
2016-06-25T02:04:43.278Z,0
2016-06-25T02:05:40.862Z,0
2016-06-25T02:06:42.645Z,0
2016-06-25T02:07:42.043Z,0
2016-06-25T02:08:42.609Z,0
2016-06-25T02:09:43.195Z,0
2016-06-25T02:10:42.580Z,0
2016-06-25T02:11:41.954Z,0
2016-06-25T02:12:41.345Z,0
2016-06-25T02:13:41.339Z,0
2016-06-25T02:14:43.107Z,0
2016-06-25T02:15:41.907Z,0
2016-06-25T02:16:41.276Z,0
2016-06-25T02:17:42.471Z,0
2016-06-25T02:18:41.257Z,0
2016-06-25T02:19:42.433Z,0
2016-06-25T02:20:41.819Z,0
2016-06-25T02:21:41.805Z,0
2016-06-25T02:22:40.573Z,0
2016-06-25T02:23:41.759Z,0
2016-06-25T02:24:41.154Z,0
2016-06-25T02:25:41.147Z,0
2016-06-25T02:26:42.321Z,0
2016-06-25T02:27:41.703Z,0
2016-06-25T02:28:41.695Z,0
2016-06-25T02:29:41.075Z,0
2016-06-25T02:30:41.656Z,0
2016-06-25T02:31:41.066Z,0
2016-06-25T02:32:41.039Z,0
2016-06-25T02:33:40.998Z,0
2016-06-25T02:34:42.205Z,0
2016-06-25T02:35:42.784Z,0
2016-06-25T02:36:41.560Z,0
2016-06-25T02:37:42.144Z,0
2016-06-25T02:38:41.525Z,0
2016-06-25T02:39:40.317Z,0
2016-06-25T02:40:42.088Z,0
2016-06-25T02:41:40.897Z,0
2016-06-25T02:42:41.468Z,0
2016-06-25T02:43:42.050Z,0
2016-06-25T02:44:41.462Z,0
2016-06-25T02:45:40.817Z,0
2016-06-25T02:46:40.796Z,0
2016-06-25T02:47:42.571Z,0
2016-06-25T02:48:42.557Z,0
2016-06-25T02:49:40.744Z,0
2016-06-25T02:50:40.742Z,0
2016-06-25T02:51:41.913Z,0
2016-06-25T02:52:41.917Z,0
2016-06-25T02:53:41.894Z,0
2016-06-25T02:54:42.467Z,0
2016-06-25T02:55:42.442Z,0
2016-06-25T02:56:41.258Z,0
2016-06-25T02:57:41.877Z,0
2016-06-25T02:58:42.380Z,0
2016-06-25T02:59:40.592Z,0
2016-06-25T03:00:40.590Z,0
2016-06-25T03:01:41.752Z,0
2016-06-25T03:02:41.753Z,0
2016-06-25T03:03:41.119Z,0
2016-06-25T03:04:41.103Z,0
2016-06-25T03:05:39.874Z,0
2016-06-25T03:06:41.659Z,0
2016-06-25T03:07:41.045Z,0
2016-06-25T03:08:41.637Z,0
2016-06-25T03:09:40.414Z,0
2016-06-25T03:10:41.612Z,0
2016-06-25T03:11:41.601Z,0
2016-06-25T03:12:39.781Z,0
2016-06-25T03:13:39.759Z,0
2016-06-25T03:14:42.138Z,0
2016-06-25T03:15:40.406Z,0
2016-06-25T03:16:41.008Z,0
2016-06-25T03:17:41.167Z,0
2016-06-25T03:18:40.645Z,0
2016-06-25T03:19:41.072Z,0
2016-06-25T03:20:41.162Z,5
2016-06-25T03:21:41.761Z,5
2016-06-25T03:22:41.840Z,5
2016-06-25T03:23:40.196Z,5
2016-06-25T03:24:40.770Z,5
2016-06-25T03:25:41.384Z,5
2016-06-25T03:26:41.326Z,10
2016-06-25T03:27:40.730Z,10
2016-06-25T03:28:41.299Z,10
2016-06-25T03:29:41.889Z,10
2016-06-25T03:30:40.081Z,10
2016-06-25T03:31:40.692Z,15
2016-06-25T03:32:40.640Z,10
2016-06-25T03:33:40.636Z,10
2016-06-25T03:34:41.851Z,10
2016-06-25T03:35:40.588Z,10
2016-06-25T03:36:41.773Z,5
2016-06-25T03:37:41.177Z,5
2016-06-25T03:38:41.139Z,5
2016-06-25T03:39:39.907Z,5
2016-06-25T03:40:41.126Z,5
2016-06-25T03:41:39.911Z,5
2016-06-25T03:42:41.674Z,5
2016-06-25T03:43:40.461Z,5
2016-06-25T03:44:41.024Z,5
2016-06-25T03:45:40.443Z,10
2016-06-25T03:46:41.000Z,10
2016-06-25T03:47:40.407Z,10
2016-06-25T03:48:39.758Z,10
2016-06-25T03:49:40.357Z,10
2016-06-25T03:50:39.134Z,10
2016-06-25T03:51:40.323Z,10
2016-06-25T03:52:39.701Z,15
2016-06-25T03:53:40.875Z,15
2016-06-25T03:54:40.269Z,15
2016-06-25T03:55:40.266Z,15
2016-06-25T03:56:40.837Z,15
2016-06-25T03:57:39.625Z,15
2016-06-25T03:58:40.803Z,15
2016-06-25T03:59:40.807Z,15
2016-06-25T04:00:39.626Z,15
2016-06-25T04:01:41.342Z,20
2016-06-25T04:02:40.727Z,30
2016-06-25T04:03:41.310Z,30
2016-06-25T04:04:41.294Z,35
2016-06-25T04:05:39.503Z,35
2016-06-25T04:06:40.063Z,35
2016-06-25T04:07:38.874Z,35
2016-06-25T04:08:39.435Z,40
2016-06-25T04:09:38.808Z,40
2016-06-25T04:10:41.175Z,40
2016-06-25T04:11:40.002Z,40
2016-06-25T04:12:39.969Z,45
2016-06-25T04:13:40.574Z,50
2016-06-25T04:14:39.366Z,50
2016-06-25T04:15:39.305Z,55
2016-06-25T04:16:39.897Z,60
2016-06-25T04:17:38.689Z,60
2016-06-25T04:18:39.855Z,50
2016-06-25T04:19:40.439Z,40
2016-06-25T04:20:40.435Z,40
2016-06-25T04:21:41.015Z,35
2016-06-25T04:22:40.388Z,30
2016-06-25T04:23:39.190Z,30
2016-06-25T04:24:40.354Z,25
2016-06-25T04:25:39.174Z,25
2016-06-25T04:26:40.363Z,25
2016-06-25T04:27:39.718Z,20
2016-06-25T04:28:40.300Z,15
2016-06-25T04:29:40.291Z,15
2016-06-25T04:30:40.274Z,15
2016-06-25T04:31:40.272Z,10
2016-06-25T04:32:39.044Z,10
2016-06-25T04:33:39.606Z,10
2016-06-25T04:34:38.998Z,10
2016-06-25T04:35:40.171Z,5
2016-06-25T04:36:38.353Z,10
2016-06-25T04:37:39.525Z,10
2016-06-25T04:38:38.929Z,10
2016-06-25T04:39:38.307Z,10
2016-06-25T04:40:38.916Z,15
2016-06-25T04:41:39.475Z,15
2016-06-25T04:42:40.058Z,15
2016-06-25T04:43:40.038Z,15
2016-06-25T04:44:40.066Z,20
2016-06-25T04:45:38.802Z,20
2016-06-25T04:46:38.185Z,25
2016-06-25T04:47:39.390Z,20
2016-06-25T04:48:38.167Z,25
2016-06-25T04:49:38.746Z,35
2016-06-25T04:50:40.505Z,30
2016-06-25T04:51:39.895Z,30
2016-06-25T04:52:39.901Z,30
2016-06-25T04:53:38.070Z,25
2016-06-25T04:54:40.444Z,25
2016-06-25T04:55:39.224Z,20
2016-06-25T04:56:39.805Z,25
2016-06-25T04:57:40.406Z,20
2016-06-25T04:58:38.566Z,20
2016-06-25T04:59:38.577Z,20
2016-06-25T05:00:39.171Z,20
2016-06-25T05:01:39.706Z,25
2016-06-25T05:02:37.925Z,25
2016-06-25T05:03:38.509Z,25
2016-06-25T05:04:39.669Z,25
2016-06-25T05:05:39.063Z,25
2016-06-25T05:06:39.048Z,30
2016-06-25T05:07:40.223Z,30
2016-06-25T05:08:39.613Z,35
2016-06-25T05:09:39.005Z,35
2016-06-25T05:10:39.577Z,35
2016-06-25T05:11:38.963Z,40
2016-06-25T05:12:38.337Z,45
2016-06-25T05:13:38.942Z,50
2016-06-25T05:14:39.533Z,55
2016-06-25T05:15:38.928Z,60
2016-06-25T05:16:38.294Z,70
2016-06-25T05:17:38.895Z,75
2016-06-25T05:18:38.237Z,80
2016-06-25T05:19:38.223Z,90
2016-06-25T05:20:38.213Z,95
2016-06-25T05:21:38.202Z,95
2016-06-25T05:22:38.769Z,90
2016-06-25T05:23:38.761Z,85
2016-06-25T05:24:39.350Z,80
2016-06-25T05:25:38.124Z,75
2016-06-25T05:26:38.101Z,75
2016-06-25T05:27:38.687Z,70
2016-06-25T05:28:38.669Z,70
2016-06-25T05:29:39.289Z,70
2016-06-25T05:30:38.036Z,65
2016-06-25T05:31:38.634Z,60
2016-06-25T05:32:39.201Z,55
2016-06-25T05:33:38.591Z,50
2016-06-25T05:34:38.570Z,50
2016-06-25T05:35:38.597Z,45
2016-06-25T05:36:38.548Z,45
2016-06-25T05:37:37.925Z,45
2016-06-25T05:38:39.088Z,45
2016-06-25T05:39:38.476Z,50
2016-06-25T05:40:39.070Z,50
2016-06-25T05:41:39.058Z,55
2016-06-25T05:42:38.426Z,55
2016-06-25T05:43:39.008Z,55
2016-06-25T05:44:37.810Z,60
2016-06-25T05:45:38.996Z,65
2016-06-25T05:46:39.572Z,65
2016-06-25T05:47:38.951Z,65
2016-06-25T05:48:38.319Z,55
2016-06-25T05:49:37.132Z,50
2016-06-25T05:50:37.707Z,45
2016-06-25T05:51:37.687Z,40
2016-06-25T05:52:39.464Z,40
2016-06-25T05:53:38.860Z,40
2016-06-25T05:54:38.235Z,40
2016-06-25T05:55:38.815Z,45
2016-06-25T05:56:39.428Z,45
2016-06-25T05:57:37.679Z,45
2016-06-25T05:58:38.766Z,50
2016-06-25T05:59:39.347Z,55
2016-06-25T06:00:38.762Z,60
2016-06-25T06:01:38.725Z,55
2016-06-25T06:02:38.085Z,55
2016-06-25T06:03:38.117Z,50
2016-06-25T06:04:38.107Z,50
2016-06-25T06:05:37.462Z,55
2016-06-25T06:06:38.633Z,65
2016-06-25T06:07:38.591Z,70
2016-06-25T06:08:37.393Z,75
2016-06-25T06:09:36.782Z,70
2016-06-25T06:10:37.342Z,70
2016-06-25T06:11:37.939Z,70
2016-06-25T06:12:38.521Z,70
2016-06-25T06:13:37.327Z,75
2016-06-25T06:14:37.883Z,80
2016-06-25T06:15:38.470Z,80
2016-06-25T06:16:37.247Z,80
2016-06-25T06:17:38.431Z,80
2016-06-25T06:18:38.429Z,80
2016-06-25T06:19:37.208Z,80
2016-06-25T06:20:38.396Z,80
2016-06-25T06:21:37.784Z,80
2016-06-25T06:22:37.178Z,80
2016-06-25T06:23:37.742Z,75
2016-06-25T06:24:37.179Z,75
2016-06-25T06:25:37.103Z,80
2016-06-25T06:26:37.694Z,80
2016-06-25T06:27:37.071Z,75
2016-06-25T06:28:37.633Z,75
2016-06-25T06:29:38.231Z,80
2016-06-25T06:30:36.422Z,90
2016-06-25T06:31:38.204Z,85
2016-06-25T06:32:38.175Z,75
2016-06-25T06:33:37.555Z,70
2016-06-25T06:34:38.170Z,65
2016-06-25T06:35:37.533Z,70
2016-06-25T06:36:38.119Z,80
2016-06-25T06:37:37.501Z,95
2016-06-25T06:38:37.461Z,85
2016-06-25T06:39:36.256Z,85
2016-06-25T06:40:38.010Z,100
2016-06-25T06:41:37.415Z,105
2016-06-25T06:42:36.197Z,125
2016-06-25T06:43:37.382Z,135
2016-06-25T06:44:37.394Z,150
2016-06-25T06:45:37.400Z,160
2016-06-25T06:46:37.350Z,165
2016-06-25T06:47:36.126Z,170
2016-06-25T06:48:37.311Z,175
2016-06-25T06:49:37.889Z,190
2016-06-25T06:50:38.021Z,195
2016-06-25T06:51:37.903Z,205
2016-06-25T06:52:37.300Z,205
2016-06-25T06:53:37.802Z,210
2016-06-25T06:54:36.031Z,215
2016-06-25T06:55:38.675Z,220
2016-06-25T06:56:36.551Z,220
2016-06-25T06:57:36.541Z,225
2016-06-25T06:58:37.797Z,225
2016-06-25T06:59:37.126Z,225
2016-06-25T07:00:35.953Z,230
2016-06-25T07:01:35.939Z,230
2016-06-25T07:02:37.090Z,235
2016-06-25T07:03:37.052Z,235
2016-06-25T07:04:37.651Z,235
2016-06-25T07:05:37.023Z,240
2016-06-25T07:06:36.416Z,245
2016-06-25T07:07:37.601Z,245
2016-06-25T07:08:37.654Z,245
2016-06-25T07:09:36.939Z,245
2016-06-25T07:10:36.944Z,245
2016-06-25T07:11:36.342Z,250
2016-06-25T07:12:38.184Z,255
2016-06-25T07:13:38.088Z,260
2016-06-25T07:14:36.278Z,255
2016-06-25T07:15:37.453Z,245
2016-06-25T07:16:36.229Z,230
2016-06-25T07:17:37.063Z,200
2016-06-25T07:18:36.218Z,175
2016-06-25T07:19:36.798Z,180
2016-06-25T07:20:37.951Z,215
2016-06-25T07:21:36.136Z,250
2016-06-25T07:22:37.297Z,265
2016-06-25T07:23:37.352Z,290
2016-06-25T07:24:35.468Z,300
2016-06-25T07:25:36.055Z,305
2016-06-25T07:26:36.052Z,305
2016-06-25T07:27:36.628Z,300
2016-06-25T07:28:37.839Z,295
2016-06-25T07:29:37.191Z,290
2016-06-25T07:30:35.422Z,285
2016-06-25T07:31:36.554Z,285
2016-06-25T07:32:36.603Z,280
2016-06-25T07:33:36.680Z,285
2016-06-25T07:34:36.535Z,290
2016-06-25T07:35:37.905Z,295
2016-06-25T07:36:36.720Z,300
2016-06-25T07:37:36.002Z,310
2016-06-25T07:38:36.449Z,325
2016-06-25T07:39:37.132Z,340
2016-06-25T07:40:36.620Z,355
2016-06-25T07:41:35.860Z,380
2016-06-25T07:42:36.668Z,405
2016-06-25T07:43:36.447Z,450
2016-06-25T07:44:37.473Z,485
2016-06-25T07:45:37.362Z,530
2016-06-25T07:46:36.470Z,575
2016-06-25T07:47:36.876Z,600
2016-06-25T07:48:35.654Z,460
2016-06-25T07:49:36.844Z,310
2016-06-25T07:50:36.827Z,230
2016-06-25T07:51:36.203Z,180
2016-06-25T07:52:35.593Z,160
2016-06-25T07:53:34.975Z,155
2016-06-25T07:54:36.743Z,150
2016-06-25T07:55:36.768Z,125
2016-06-25T07:56:36.108Z,110
2016-06-25T07:57:35.501Z,105
2016-06-25T07:58:36.675Z,100
2016-06-25T07:59:36.684Z,100
2016-06-25T08:00:37.249Z,100
2016-06-25T08:01:36.614Z,100
2016-06-25T08:02:36.607Z,100
2016-06-25T08:03:35.983Z,95
2016-06-25T08:04:36.503Z,95
2016-06-25T08:05:36.040Z,100
2016-06-25T08:06:36.762Z,100
2016-06-25T08:07:36.427Z,100
2016-06-25T08:08:36.512Z,100
2016-06-25T08:09:34.697Z,100
2016-06-25T08:10:35.899Z,105
2016-06-25T08:11:36.463Z,110
2016-06-25T08:12:35.839Z,125
2016-06-25T08:13:35.843Z,175
2016-06-25T08:14:36.418Z,205
2016-06-25T08:15:35.789Z,230
2016-06-25T08:16:35.775Z,235
2016-06-25T08:17:35.146Z,225
2016-06-25T08:18:36.919Z,200
2016-06-25T08:19:35.718Z,190
2016-06-25T08:20:35.697Z,215
2016-06-25T08:21:36.293Z,235
2016-06-25T08:22:34.525Z,250
2016-06-25T08:23:35.097Z,255
2016-06-25T08:24:35.643Z,250
2016-06-25T08:25:36.294Z,245
2016-06-25T08:26:36.895Z,250
2016-06-25T08:27:35.596Z,255
2016-06-25T08:28:36.804Z,240
2016-06-25T08:29:35.536Z,215
2016-06-25T08:30:34.931Z,210
2016-06-25T08:31:36.111Z,215
2016-06-25T08:32:35.537Z,210
2016-06-25T08:33:35.479Z,210
2016-06-25T08:34:35.464Z,190
2016-06-25T08:35:36.079Z,185
2016-06-25T08:36:34.842Z,175
2016-06-25T08:37:34.797Z,170
2016-06-25T08:38:36.589Z,175
2016-06-25T08:39:35.356Z,180
2016-06-25T08:40:34.757Z,180
2016-06-25T08:41:35.333Z,175
2016-06-25T08:42:35.314Z,170
2016-06-25T08:43:36.490Z,160
2016-06-25T08:44:34.689Z,150
2016-06-25T08:45:35.266Z,140
2016-06-25T08:46:35.242Z,135
2016-06-25T08:47:35.243Z,135
2016-06-25T08:48:35.809Z,140
2016-06-25T08:49:35.192Z,135
2016-06-25T08:50:35.760Z,130
2016-06-25T08:51:35.166Z,130
2016-06-25T08:52:35.734Z,140
2016-06-25T08:53:34.551Z,140
2016-06-25T08:54:35.709Z,140
2016-06-25T08:55:35.094Z,140
2016-06-25T08:56:35.061Z,135
2016-06-25T08:57:35.700Z,125
2016-06-25T08:58:33.847Z,115
2016-06-25T08:59:35.015Z,120
2016-06-25T09:00:35.020Z,130
2016-06-25T09:01:34.397Z,135
2016-06-25T09:02:34.360Z,140
2016-06-25T09:03:36.139Z,135
2016-06-25T09:04:34.319Z,130
2016-06-25T09:05:34.292Z,115
2016-06-25T09:06:35.495Z,105
2016-06-25T09:07:34.874Z,105
2016-06-25T09:08:34.860Z,100
2016-06-25T09:09:34.245Z,95
2016-06-25T09:10:34.831Z,80
2016-06-25T09:11:34.188Z,85
2016-06-25T09:12:35.375Z,95
2016-06-25T09:13:33.593Z,105
2016-06-25T09:14:34.153Z,110
2016-06-25T09:15:34.135Z,95
2016-06-25T09:16:34.727Z,75
2016-06-25T09:17:35.288Z,70
2016-06-25T09:18:34.090Z,65
2016-06-25T09:19:34.067Z,65
2016-06-25T09:20:35.243Z,75
2016-06-25T09:21:35.236Z,85
2016-06-25T09:22:34.012Z,90
2016-06-25T09:23:33.990Z,100
2016-06-25T09:24:35.198Z,115
2016-06-25T09:25:35.183Z,135
2016-06-25T09:26:34.538Z,155
2016-06-25T09:27:35.126Z,175
2016-06-25T09:28:35.104Z,190
2016-06-25T09:29:34.477Z,190
2016-06-25T09:30:34.534Z,180
2016-06-25T09:31:33.887Z,175
2016-06-25T09:32:34.435Z,175
2016-06-25T09:33:34.424Z,170
2016-06-25T09:34:35.055Z,165
2016-06-25T09:35:34.426Z,155
2016-06-25T09:36:34.369Z,145
2016-06-25T09:37:35.004Z,140
2016-06-25T09:38:33.737Z,145
2016-06-25T09:39:34.904Z,165
2016-06-25T09:40:35.494Z,180
2016-06-25T09:41:34.276Z,185
2016-06-25T09:42:33.665Z,180
2016-06-25T09:43:34.244Z,155
2016-06-25T09:44:34.946Z,135
2016-06-25T09:45:34.215Z,135
2016-06-25T09:46:34.196Z,145
2016-06-25T09:47:33.587Z,150
2016-06-25T09:48:34.218Z,160
2016-06-25T09:49:33.571Z,165
2016-06-25T09:50:33.562Z,170
2016-06-25T09:51:32.890Z,180
2016-06-25T09:52:34.079Z,195
2016-06-25T09:53:34.075Z,215
2016-06-25T09:54:34.062Z,230
2016-06-25T09:55:32.836Z,240
2016-06-25T09:56:33.422Z,240
2016-06-25T09:57:34.704Z,240
2016-06-25T09:58:33.985Z,245
2016-06-25T09:59:33.389Z,250
2016-06-25T10:00:33.942Z,250
2016-06-25T10:01:34.544Z,255
2016-06-25T10:02:33.929Z,255
2016-06-25T10:03:33.903Z,250
2016-06-25T10:04:34.495Z,245
2016-06-25T10:05:34.449Z,240
2016-06-25T10:06:32.652Z,240
2016-06-25T10:07:34.440Z,240
2016-06-25T10:08:33.835Z,240
2016-06-25T10:09:33.796Z,240
2016-06-25T10:10:33.779Z,235
2016-06-25T10:11:33.772Z,225
2016-06-25T10:12:34.315Z,215
2016-06-25T10:13:34.931Z,210
2016-06-25T10:14:34.305Z,205
2016-06-25T10:15:33.701Z,205
2016-06-25T10:16:33.661Z,205
2016-06-25T10:17:34.321Z,210
2016-06-25T10:18:33.636Z,225
2016-06-25T10:19:33.615Z,250
2016-06-25T10:20:33.584Z,290
2016-06-25T10:21:34.222Z,330
2016-06-25T10:22:32.971Z,365
2016-06-25T10:23:33.689Z,385
2016-06-25T10:24:34.744Z,375
2016-06-25T10:25:34.121Z,360
2016-06-25T10:26:33.500Z,350
2016-06-25T10:27:33.470Z,345
2016-06-25T10:28:32.855Z,350
2016-06-25T10:29:33.775Z,355
2016-06-25T10:30:33.411Z,345
2016-06-25T10:31:33.993Z,335
2016-06-25T10:32:33.989Z,230
2016-06-25T10:33:33.364Z,205
2016-06-25T10:34:33.353Z,205
2016-06-25T10:35:33.343Z,225
2016-06-25T10:36:34.503Z,315
2016-06-25T10:37:33.323Z,405
2016-06-25T10:38:33.893Z,460
2016-06-25T10:39:32.671Z,465
2016-06-25T10:40:32.646Z,455
2016-06-25T10:41:32.636Z,450
2016-06-25T10:42:33.206Z,455
2016-06-25T10:43:33.785Z,450
2016-06-25T10:44:33.161Z,415
2016-06-25T10:45:32.752Z,425
2016-06-25T10:46:32.549Z,435
2016-06-25T10:47:33.123Z,415
2016-06-25T10:48:33.682Z,355
2016-06-25T10:49:33.086Z,320
2016-06-25T10:50:33.130Z,335
2016-06-25T10:51:34.239Z,330
2016-06-25T10:52:33.421Z,325
2016-06-25T10:53:33.026Z,325
2016-06-25T10:54:33.004Z,335
2016-06-25T10:55:33.577Z,375
2016-06-25T10:56:32.953Z,415
2016-06-25T10:57:32.947Z,450
2016-06-25T10:58:32.333Z,485
2016-06-25T10:59:32.933Z,540
2016-06-25T11:00:32.882Z,555
2016-06-25T11:01:32.286Z,575
2016-06-25T11:02:32.862Z,590
2016-06-25T11:03:32.260Z,675
2016-06-25T11:04:32.813Z,715
2016-06-25T11:05:32.966Z,700
2016-06-25T11:06:32.789Z,760
2016-06-25T11:07:32.749Z,675
2016-06-25T11:08:33.362Z,650
2016-06-25T11:09:33.932Z,605
2016-06-25T11:10:32.111Z,570
2016-06-25T11:11:33.923Z,520
2016-06-25T11:12:32.734Z,470
2016-06-25T11:13:32.079Z,485
2016-06-25T11:14:32.682Z,505
2016-06-25T11:15:33.831Z,525
2016-06-25T11:16:32.610Z,535
2016-06-25T11:17:31.995Z,490
2016-06-25T11:18:32.553Z,470
2016-06-25T11:19:32.570Z,425
2016-06-25T11:20:32.569Z,420
2016-06-25T11:21:32.531Z,430
2016-06-25T11:22:32.560Z,390
2016-06-25T11:23:32.473Z,440
2016-06-25T11:24:31.885Z,450
2016-06-25T11:25:31.878Z,495
2016-06-25T11:26:32.452Z,440
2016-06-25T11:27:31.230Z,390
2016-06-25T11:28:32.420Z,410
2016-06-25T11:29:33.037Z,380
2016-06-25T11:30:31.765Z,380
2016-06-25T11:31:32.973Z,445
2016-06-25T11:32:33.521Z,415
2016-06-25T11:33:32.325Z,360
2016-06-25T11:34:32.291Z,420
2016-06-25T11:35:32.285Z,400
2016-06-25T11:36:33.446Z,330
2016-06-25T11:37:32.847Z,285
2016-06-25T11:38:32.242Z,265
2016-06-25T11:39:31.594Z,270
2016-06-25T11:40:32.202Z,305
2016-06-25T11:41:31.588Z,345
2016-06-25T11:42:32.156Z,350
2016-06-25T11:43:32.149Z,435
2016-06-25T11:44:30.914Z,480
2016-06-25T11:45:32.690Z,455
2016-06-25T11:46:32.089Z,435
2016-06-25T11:47:31.491Z,315
2016-06-25T11:48:31.455Z,245
2016-06-25T11:49:32.033Z,290
2016-06-25T11:50:32.007Z,320
2016-06-25T11:51:31.987Z,365
2016-06-25T11:52:31.998Z,370
2016-06-25T11:53:32.582Z,360
2016-06-25T11:54:31.946Z,295
2016-06-25T11:55:31.926Z,260
2016-06-25T11:56:31.925Z,225
2016-06-25T11:57:32.060Z,250
2016-06-25T11:58:31.849Z,235
2016-06-25T11:59:31.911Z,210
2016-06-25T12:00:31.250Z,240
2016-06-25T12:01:31.211Z,340
2016-06-25T12:02:32.404Z,330
2016-06-25T12:03:31.216Z,315
2016-06-25T12:04:32.368Z,230
2016-06-25T12:05:32.990Z,285
2016-06-25T12:06:31.737Z,360
2016-06-25T12:07:31.111Z,330
2016-06-25T12:08:32.327Z,290
2016-06-25T12:09:31.686Z,355
2016-06-25T12:10:31.663Z,370
2016-06-25T12:11:32.856Z,325
2016-06-25T12:12:31.623Z,230
2016-06-25T12:13:32.809Z,220
2016-06-25T12:14:32.189Z,280
2016-06-25T12:15:32.200Z,275
2016-06-25T12:16:32.750Z,280
2016-06-25T12:17:32.117Z,265
2016-06-25T12:18:30.919Z,250
2016-06-25T12:19:31.502Z,275
2016-06-25T12:20:31.479Z,305
2016-06-25T12:21:32.062Z,205
2016-06-25T12:22:32.052Z,230
2016-06-25T12:23:31.490Z,255
2016-06-25T12:24:31.442Z,280
2016-06-25T12:25:32.030Z,295
2016-06-25T12:26:31.970Z,345
2016-06-25T12:27:30.771Z,435
2016-06-25T12:28:30.132Z,410
2016-06-25T12:29:30.787Z,350
2016-06-25T12:30:32.498Z,250
2016-06-25T12:31:30.666Z,260
2016-06-25T12:32:32.490Z,270
2016-06-25T12:33:31.836Z,240
2016-06-25T12:34:31.822Z,230
2016-06-25T12:35:31.809Z,340
2016-06-25T12:36:31.187Z,395
2016-06-25T12:37:31.790Z,440
2016-06-25T12:38:31.751Z,480
2016-06-25T12:39:30.536Z,535
2016-06-25T12:40:31.130Z,610
2016-06-25T12:41:31.106Z,670
2016-06-25T12:42:29.939Z,665
2016-06-25T12:43:31.106Z,685
2016-06-25T12:44:31.074Z,655
2016-06-25T12:45:30.434Z,800
2016-06-25T12:46:32.218Z,905
2016-06-25T12:47:31.587Z,960
2016-06-25T12:48:31.598Z,770
2016-06-25T12:49:30.383Z,595
2016-06-25T12:50:30.398Z,655
2016-06-25T12:51:30.928Z,615
2016-06-25T12:52:30.315Z,470
2016-06-25T12:53:31.562Z,455
2016-06-25T12:54:31.454Z,335
2016-06-25T12:55:30.271Z,395
2016-06-25T12:56:31.455Z,395
2016-06-25T12:57:30.249Z,355
2016-06-25T12:58:31.485Z,335
2016-06-25T12:59:31.389Z,370
2016-06-25T13:00:31.406Z,420
2016-06-25T13:01:30.758Z,445
2016-06-25T13:02:31.347Z,375
2016-06-25T13:03:30.775Z,455
2016-06-25T13:04:31.280Z,430
2016-06-25T13:05:30.845Z,420
2016-06-25T13:06:31.270Z,400
2016-06-25T13:07:30.640Z,380
2016-06-25T13:08:31.860Z,480
2016-06-25T13:09:31.869Z,585
2016-06-25T13:10:30.602Z,455
2016-06-25T13:11:31.161Z,385
2016-06-25T13:12:30.554Z,395
2016-06-25T13:13:29.932Z,515
2016-06-25T13:14:29.923Z,585
2016-06-25T13:15:31.108Z,610
2016-06-25T13:16:29.888Z,575
2016-06-25T13:17:30.470Z,655
2016-06-25T13:18:31.665Z,620
2016-06-25T13:19:31.019Z,530
2016-06-25T13:20:31.013Z,655
2016-06-25T13:21:29.218Z,700
2016-06-25T13:22:30.968Z,680
2016-06-25T13:23:30.995Z,630
2016-06-25T13:24:30.939Z,550
2016-06-25T13:25:29.151Z,385
2016-06-25T13:26:30.909Z,345
2016-06-25T13:27:30.909Z,405
2016-06-25T13:28:30.878Z,395
2016-06-25T13:29:29.109Z,310
2016-06-25T13:30:29.648Z,320
2016-06-25T13:31:30.215Z,315
2016-06-25T13:32:30.248Z,265
2016-06-25T13:33:30.181Z,275
2016-06-25T13:34:30.175Z,300
2016-06-25T13:35:29.550Z,350
2016-06-25T13:36:30.132Z,470
2016-06-25T13:37:31.318Z,450
2016-06-25T13:38:30.684Z,465
2016-06-25T13:39:31.027Z,440
2016-06-25T13:40:31.489Z,510
2016-06-25T13:41:30.647Z,445
2016-06-25T13:42:30.612Z,380
2016-06-25T13:43:30.029Z,430
2016-06-25T13:44:29.980Z,455
2016-06-25T13:45:30.093Z,430
2016-06-25T13:46:29.939Z,325
2016-06-25T13:47:30.019Z,340
2016-06-25T13:48:29.322Z,360
2016-06-25T13:49:29.881Z,415
2016-06-25T13:50:30.467Z,325
2016-06-25T13:51:30.448Z,285
2016-06-25T13:52:29.889Z,325
2016-06-25T13:53:30.443Z,335
2016-06-25T13:54:30.427Z,295
2016-06-25T13:55:30.358Z,245
2016-06-25T13:56:29.158Z,185
2016-06-25T13:57:30.927Z,140
2016-06-25T13:58:29.120Z,130
2016-06-25T13:59:29.698Z,125
2016-06-25T14:00:29.687Z,115
2016-06-25T14:01:30.246Z,115
2016-06-25T14:02:29.061Z,105
2016-06-25T14:03:29.641Z,100
2016-06-25T14:04:29.611Z,125
2016-06-25T14:05:30.797Z,130
2016-06-25T14:06:28.363Z,160
2016-06-25T14:07:29.556Z,190